Time;durP1;ratioP1;P1;durP2;ratioP2;P2;SDS_P1;SDS_P2;PMS_P1;PMS_P2;Temp;Humidity;BMP_temperature;BMP_pressure;BME280_temperature;BME280_humidity;BME280_pressure;Samples;Min_cycle;Max_cycle;Signal;HPM_P1;HPM_P2
2023/08/11 00:02:00;;;;;;;733.45;485.20;;;;;;;;;;5024551;28;20444;-69
2023/08/11 00:04:28;;;;;;;724.92;468.65;;;;;;;;;;5025623;28;20832;-68
2023/08/11 00:06:55;;;;;;;725.17;476.15;;;;;;;;;;5028889;28;20433;-69
2023/08/11 00:09:26;;;;;;;730.72;477.35;;;;;;;;;;5028483;28;20510;-68
2023/08/11 00:11:55;;;;;;;725.10;482.27;;;;;;;;;;5026893;28;21035;-68
2023/08/11 00:14:22;;;;;;;718.13;458.30;;;;;;;;;;5029309;28;20441;-68
2023/08/11 00:16:49;;;;;;;724.22;475.63;;;;;;;;;;5027716;28;20528;-68
2023/08/11 00:19:16;;;;;;;714.72;457.63;;;;;;;;;;5030223;28;20445;-68
2023/08/11 00:21:43;;;;;;;708.75;441.75;;;;;;;;;;5027330;28;20434;-68
2023/08/11 00:24:11;;;;;;;714.03;459.93;;;;;;;;;;5032419;28;20436;-68
2023/08/11 00:26:38;;;;;;;712.63;454.27;;;;;;;;;;5028328;28;20438;-68
2023/08/11 00:29:05;;;;;;;703.78;430.15;;;;;;;;;;5027162;28;20504;-68
2023/08/11 00:31:32;;;;;;;713.38;457.02;;;;;;;;;;5027455;28;20439;-68
2023/08/11 00:34:01;;;;;;;712.80;456.15;;;;;;;;;;5028245;28;20436;-68
2023/08/11 00:36:28;;;;;;;708.72;445.05;;;;;;;;;;5026753;28;20537;-68
2023/08/11 00:39:00;;;;;;;701.70;440.55;;;;;;;;;;5021285;28;20477;-68
2023/08/11 00:41:30;;;;;;;697.42;431.55;;;;;;;;;;5029892;28;20935;-68
2023/08/11 00:43:57;;;;;;;697.00;440.20;;;;;;;;;;5033836;28;20437;-68
2023/08/11 00:46:24;;;;;;;693.03;429.65;;;;;;;;;;5022742;28;20442;-68
2023/08/11 00:48:52;;;;;;;691.03;423.92;;;;;;;;;;5030306;28;20842;-68
2023/08/11 00:51:22;;;;;;;693.28;426.20;;;;;;;;;;5031830;28;20429;-68
2023/08/11 00:53:50;;;;;;;697.08;440.52;;;;;;;;;;5032993;28;20461;-68
2023/08/11 00:56:22;;;;;;;701.03;443.93;;;;;;;;;;5032232;28;20446;-68
2023/08/11 00:58:53;;;;;;;696.28;436.20;;;;;;;;;;5032030;28;20433;-68
2023/08/11 01:01:22;;;;;;;696.65;436.63;;;;;;;;;;5034456;28;20451;-68
2023/08/11 01:03:50;;;;;;;697.17;428.63;;;;;;;;;;5033824;28;20425;-68
2023/08/11 01:06:23;;;;;;;701.88;439.73;;;;;;;;;;5030136;28;20429;-68
2023/08/11 01:09:00;;;;;;;704.08;446.23;;;;;;;;;;5030197;28;20439;-68
2023/08/11 01:11:33;;;;;;;696.55;429.77;;;;;;;;;;5031672;28;20433;-68
2023/08/11 01:14:18;;;;;;;699.30;449.65;;;;;;;;;;5031566;28;20964;-68
2023/08/11 01:16:50;;;;;;;694.33;439.57;;;;;;;;;;5030729;28;20604;-69
2023/08/11 01:19:31;;;;;;;690.10;412.42;;;;;;;;;;5035463;28;20434;-69
2023/08/11 01:22:00;;;;;;;682.45;419.45;;;;;;;;;;5029931;28;20433;-68
2023/08/11 01:24:27;;;;;;;674.63;409.40;;;;;;;;;;5034088;28;20427;-69
2023/08/11 01:26:58;;;;;;;677.63;416.55;;;;;;;;;;5031610;28;20451;-68
2023/08/11 01:29:25;;;;;;;676.50;418.35;;;;;;;;;;5029019;28;20532;-69
2023/08/11 01:31:52;;;;;;;679.25;420.50;;;;;;;;;;5030794;28;20439;-69
2023/08/11 01:34:22;;;;;;;680.47;419.50;;;;;;;;;;5031098;28;21925;-68
2023/08/11 01:36:50;;;;;;;681.22;420.48;;;;;;;;;;5029576;28;20440;-68
2023/08/11 01:39:17;;;;;;;680.28;414.42;;;;;;;;;;5031394;28;20433;-68
2023/08/11 01:41:45;;;;;;;682.15;418.10;;;;;;;;;;5029725;28;20438;-68
2023/08/11 01:44:22;;;;;;;683.40;421.63;;;;;;;;;;5029353;28;20437;-68
2023/08/11 01:46:51;;;;;;;681.72;419.50;;;;;;;;;;5033401;28;20439;-68
2023/08/11 01:49:18;;;;;;;678.38;416.90;;;;;;;;;;5031748;28;20426;-68
2023/08/11 01:51:45;;;;;;;676.42;417.10;;;;;;;;;;5027676;28;20512;-69
2023/08/11 01:54:13;;;;;;;665.50;397.55;;;;;;;;;;5037424;28;20464;-68
2023/08/11 01:56:40;;;;;;;661.13;392.63;;;;;;;;;;5030214;28;20469;-68
2023/08/11 01:59:11;;;;;;;667.90;402.35;;;;;;;;;;5032021;28;20532;-68
2023/08/11 02:01:39;;;;;;;665.63;400.77;;;;;;;;;;5034919;28;20441;-68
2023/08/11 02:04:10;;;;;;;661.20;392.15;;;;;;;;;;5027834;28;21569;-68
2023/08/11 02:06:45;;;;;;;655.50;387.85;;;;;;;;;;5031199;28;20512;-68
2023/08/11 02:09:12;;;;;;;652.40;385.88;;;;;;;;;;5030873;28;20438;-69
2023/08/11 02:11:40;;;;;;;656.33;390.70;;;;;;;;;;5030590;28;20437;-68
2023/08/11 02:14:08;;;;;;;669.08;407.42;;;;;;;;;;5029511;28;20423;-69
2023/08/11 02:16:35;;;;;;;677.70;414.15;;;;;;;;;;5030360;28;20426;-69
2023/08/11 02:19:04;;;;;;;697.20;439.23;;;;;;;;;;5031397;28;20439;-68
2023/08/11 02:21:38;;;;;;;708.75;446.52;;;;;;;;;;5031815;28;20431;-68
2023/08/11 02:24:05;;;;;;;726.70;471.55;;;;;;;;;;5028549;28;20512;-68
2023/08/11 02:26:33;;;;;;;726.13;470.50;;;;;;;;;;5031470;28;20446;-68
2023/08/11 02:29:00;;;;;;;732.90;477.92;;;;;;;;;;5032408;28;21008;-68
2023/08/11 02:31:27;;;;;;;734.63;473.02;;;;;;;;;;5037120;28;20441;-68
2023/08/11 02:33:54;;;;;;;740.97;489.23;;;;;;;;;;5028742;28;20443;-68
2023/08/11 02:36:23;;;;;;;742.47;490.52;;;;;;;;;;5031062;28;20433;-68
2023/08/11 02:38:51;;;;;;;738.25;473.85;;;;;;;;;;5030209;28;20429;-68
2023/08/11 02:41:18;;;;;;;735.38;472.35;;;;;;;;;;5031522;28;20437;-68
2023/08/11 02:43:45;;;;;;;739.80;481.05;;;;;;;;;;5028734;28;20546;-68
2023/08/11 02:46:12;;;;;;;736.97;473.42;;;;;;;;;;5029852;28;21068;-68
2023/08/11 02:48:40;;;;;;;731.08;465.35;;;;;;;;;;5028248;28;20425;-68
2023/08/11 02:51:08;;;;;;;736.90;482.15;;;;;;;;;;5032144;28;20437;-68
2023/08/11 02:53:35;;;;;;;731.22;469.63;;;;;;;;;;5030078;28;20464;-68
2023/08/11 02:56:08;;;;;;;729.90;470.80;;;;;;;;;;5032870;28;20588;-68
2023/08/11 02:58:36;;;;;;;729.08;465.17;;;;;;;;;;5027209;28;20968;-69
2023/08/11 03:01:03;;;;;;;725.13;463.40;;;;;;;;;;5033184;28;20535;-68
2023/08/11 03:03:30;;;;;;;721.60;445.48;;;;;;;;;;5028608;28;20431;-69
2023/08/11 03:05:58;;;;;;;720.22;454.73;;;;;;;;;;5029295;28;20943;-68
2023/08/11 03:08:25;;;;;;;722.95;464.38;;;;;;;;;;5030591;28;20440;-68
2023/08/11 03:10:55;;;;;;;722.47;470.40;;;;;;;;;;5029739;28;20512;-68
2023/08/11 03:13:23;;;;;;;709.40;436.13;;;;;;;;;;5027560;28;20433;-68
2023/08/11 03:15:52;;;;;;;704.00;426.15;;;;;;;;;;5033716;28;20437;-68
2023/08/11 03:18:19;;;;;;;708.35;445.50;;;;;;;;;;5034457;28;22955;-69
2023/08/11 03:20:47;;;;;;;709.17;449.63;;;;;;;;;;5028409;28;21129;-69
2023/08/11 03:23:14;;;;;;;706.77;447.43;;;;;;;;;;5031721;28;20433;-68
2023/08/11 03:25:41;;;;;;;714.58;467.70;;;;;;;;;;5027582;28;20829;-69
2023/08/11 03:28:09;;;;;;;698.13;437.27;;;;;;;;;;5027963;28;20427;-68
2023/08/11 03:30:36;;;;;;;690.78;425.85;;;;;;;;;;5030080;28;20427;-69
2023/08/11 03:33:07;;;;;;;700.72;443.88;;;;;;;;;;5031600;28;20437;-68
2023/08/11 03:35:34;;;;;;;686.88;417.55;;;;;;;;;;5028365;28;20438;-68
2023/08/11 03:38:01;;;;;;;687.63;425.52;;;;;;;;;;5028952;28;20444;-68
2023/08/11 03:40:29;;;;;;;681.03;416.27;;;;;;;;;;5028750;28;20453;-69
2023/08/11 03:42:57;;;;;;;678.25;414.48;;;;;;;;;;5028485;28;20440;-69
2023/08/11 03:45:24;;;;;;;675.60;404.70;;;;;;;;;;5033235;28;20429;-69
2023/08/11 03:47:51;;;;;;;675.60;402.77;;;;;;;;;;5023084;28;20435;-68
2023/08/11 03:50:18;;;;;;;678.08;400.33;;;;;;;;;;5026413;28;20445;-68
2023/08/11 03:52:48;;;;;;;674.42;394.45;;;;;;;;;;5025188;28;20429;-69
2023/08/11 03:55:15;;;;;;;669.95;396.23;;;;;;;;;;5033016;28;20448;-68
2023/08/11 03:57:42;;;;;;;664.47;389.02;;;;;;;;;;5028396;28;20439;-68
2023/08/11 04:00:14;;;;;;;663.53;395.15;;;;;;;;;;5027090;28;20491;-68
2023/08/11 04:02:44;;;;;;;663.30;398.10;;;;;;;;;;5027691;28;20466;-68
2023/08/11 04:05:11;;;;;;;660.67;394.50;;;;;;;;;;5031717;28;20524;-69
2023/08/11 04:07:39;;;;;;;663.22;417.17;;;;;;;;;;5031866;28;20503;-69
2023/08/11 04:10:09;;;;;;;650.30;395.40;;;;;;;;;;5025464;28;20576;-69
2023/08/11 04:12:36;;;;;;;642.38;377.00;;;;;;;;;;5027990;28;20444;-69
2023/08/11 04:15:04;;;;;;;642.73;376.70;;;;;;;;;;5027100;28;20433;-69
2023/08/11 04:17:33;;;;;;;643.03;385.58;;;;;;;;;;5026526;28;20472;-69
2023/08/11 04:20:01;;;;;;;648.28;400.08;;;;;;;;;;5030278;28;20542;-69
2023/08/11 04:22:28;;;;;;;645.42;389.27;;;;;;;;;;5034319;28;20433;-69
2023/08/11 04:25:06;;;;;;;651.03;387.35;;;;;;;;;;5027610;28;20463;-68
2023/08/11 04:27:33;;;;;;;654.35;392.33;;;;;;;;;;5030162;28;21222;-69
2023/08/11 04:30:00;;;;;;;650.38;381.45;;;;;;;;;;5029527;28;20442;-69
2023/08/11 04:32:28;;;;;;;654.28;384.80;;;;;;;;;;5029391;28;20443;-69
2023/08/11 04:34:55;;;;;;;657.53;385.00;;;;;;;;;;5028666;28;20802;-68
2023/08/11 04:37:23;;;;;;;659.80;385.50;;;;;;;;;;5034782;28;20429;-69
2023/08/11 04:39:51;;;;;;;668.45;393.17;;;;;;;;;;5028314;28;20442;-69
2023/08/11 04:42:21;;;;;;;672.85;409.50;;;;;;;;;;5027097;28;20521;-68
2023/08/11 04:44:48;;;;;;;679.40;410.25;;;;;;;;;;5024707;28;20435;-68
2023/08/11 04:47:15;;;;;;;685.28;419.73;;;;;;;;;;5029815;28;20471;-68
2023/08/11 04:49:45;;;;;;;687.60;414.30;;;;;;;;;;5032327;28;20426;-69
2023/08/11 04:52:13;;;;;;;689.87;417.80;;;;;;;;;;5029619;28;21248;-68
2023/08/11 04:54:40;;;;;;;699.58;434.77;;;;;;;;;;5028239;28;20456;-69
2023/08/11 04:57:07;;;;;;;701.78;432.13;;;;;;;;;;5029042;28;20434;-69
2023/08/11 04:59:34;;;;;;;706.67;442.03;;;;;;;;;;5028524;28;20443;-68
2023/08/11 05:02:02;;;;;;;710.55;442.52;;;;;;;;;;5033348;28;20436;-69
2023/08/11 05:04:29;;;;;;;714.72;451.42;;;;;;;;;;5030348;28;20961;-68
2023/08/11 05:06:57;;;;;;;720.13;461.20;;;;;;;;;;5025050;28;20429;-68
2023/08/11 05:09:24;;;;;;;724.00;466.38;;;;;;;;;;5028424;28;21973;-68
2023/08/11 05:11:51;;;;;;;723.80;458.15;;;;;;;;;;5028690;28;20434;-68
2023/08/11 05:14:18;;;;;;;726.30;462.67;;;;;;;;;;5027469;28;20438;-68
2023/08/11 05:16:46;;;;;;;725.67;453.90;;;;;;;;;;5031527;28;20444;-69
2023/08/11 05:19:13;;;;;;;729.72;450.73;;;;;;;;;;5028530;28;20433;-69
2023/08/11 05:21:40;;;;;;;733.15;465.80;;;;;;;;;;5029291;28;20440;-69
2023/08/11 05:24:10;;;;;;;732.90;456.17;;;;;;;;;;5028523;28;20437;-69
2023/08/11 05:26:37;;;;;;;740.58;464.10;;;;;;;;;;5027414;28;20427;-69
2023/08/11 05:29:05;;;;;;;741.75;472.35;;;;;;;;;;5026930;28;20429;-70
2023/08/11 05:31:35;;;;;;;756.08;496.60;;;;;;;;;;5029368;28;20522;-69
2023/08/11 05:34:03;;;;;;;757.90;489.67;;;;;;;;;;5028986;28;20441;-70
2023/08/11 05:36:31;;;;;;;780.67;527.55;;;;;;;;;;5028475;28;20434;-69
2023/08/11 05:39:01;;;;;;;794.63;546.35;;;;;;;;;;5030870;28;20466;-69
2023/08/11 05:41:28;;;;;;;810.13;565.22;;;;;;;;;;5031982;28;20965;-69
2023/08/11 05:43:55;;;;;;;817.60;562.80;;;;;;;;;;5034334;28;20819;-70
2023/08/11 05:46:23;;;;;;;816.72;557.55;;;;;;;;;;5028694;28;20426;-70
2023/08/11 05:48:51;;;;;;;818.00;571.67;;;;;;;;;;5030066;28;20508;-69
2023/08/11 05:51:18;;;;;;;829.00;572.90;;;;;;;;;;5034433;28;20429;-70
2023/08/11 05:53:46;;;;;;;846.03;614.67;;;;;;;;;;5031117;28;20433;-70
2023/08/11 05:56:14;;;;;;;848.47;619.40;;;;;;;;;;5035225;28;20525;-70
2023/08/11 05:58:42;;;;;;;853.53;627.67;;;;;;;;;;5031500;28;20516;-70
2023/08/11 06:01:09;;;;;;;862.20;642.42;;;;;;;;;;5029847;28;20427;-69
2023/08/11 06:03:36;;;;;;;866.75;650.40;;;;;;;;;;5030374;28;20524;-69
2023/08/11 06:06:10;;;;;;;866.15;645.60;;;;;;;;;;5028613;28;20430;-69
2023/08/11 06:08:37;;;;;;;870.80;657.30;;;;;;;;;;5030602;28;23110;-69
2023/08/11 06:11:04;;;;;;;874.88;659.72;;;;;;;;;;5031422;28;20898;-69
2023/08/11 06:13:31;;;;;;;890.03;688.72;;;;;;;;;;5030062;28;20439;-70
2023/08/11 06:15:58;;;;;;;894.92;696.80;;;;;;;;;;5029616;28;20517;-62
2023/08/11 06:18:26;;;;;;;897.53;706.30;;;;;;;;;;5024769;28;20440;-62
2023/08/11 06:20:53;;;;;;;893.38;698.72;;;;;;;;;;5028860;28;20430;-62
2023/08/11 06:23:20;;;;;;;898.67;706.30;;;;;;;;;;5029203;28;20434;-61
2023/08/11 06:25:48;;;;;;;905.25;716.30;;;;;;;;;;5029946;28;20595;-62
2023/08/11 06:28:19;;;;;;;902.53;718.75;;;;;;;;;;5026423;28;20475;-61
2023/08/11 06:30:46;;;;;;;905.88;723.20;;;;;;;;;;5029020;28;20438;-62
2023/08/11 06:33:13;;;;;;;908.58;726.10;;;;;;;;;;5044532;28;20456;-62
2023/08/11 06:35:42;;;;;;;911.90;734.90;;;;;;;;;;5042971;28;20433;-62
2023/08/11 06:38:10;;;;;;;917.73;744.10;;;;;;;;;;5030729;28;20600;-62
2023/08/11 06:40:41;;;;;;;923.67;760.58;;;;;;;;;;5028697;28;20439;-63
2023/08/11 06:43:10;;;;;;;922.97;759.55;;;;;;;;;;5029383;28;20483;-62
2023/08/11 06:45:37;;;;;;;939.75;778.08;;;;;;;;;;5031681;28;20440;-62
2023/08/11 06:48:05;;;;;;;941.00;785.07;;;;;;;;;;5029369;28;20515;-62
2023/08/11 06:50:35;;;;;;;935.33;774.03;;;;;;;;;;5028191;28;21100;-62
2023/08/11 06:53:03;;;;;;;943.38;789.90;;;;;;;;;;5028402;28;20939;-62
2023/08/11 06:55:30;;;;;;;940.92;783.67;;;;;;;;;;5021010;28;21030;-62
2023/08/11 06:57:57;;;;;;;944.28;788.38;;;;;;;;;;5028513;28;20483;-62
2023/08/11 07:00:24;;;;;;;951.80;805.85;;;;;;;;;;5027190;28;20514;-63
2023/08/11 07:02:51;;;;;;;947.80;800.08;;;;;;;;;;5028168;28;20441;-62
2023/08/11 07:05:19;;;;;;;956.13;807.00;;;;;;;;;;5026669;28;20532;-63
2023/08/11 07:07:46;;;;;;;954.20;808.92;;;;;;;;;;5025845;28;20437;-62
2023/08/11 07:10:13;;;;;;;959.88;817.65;;;;;;;;;;5026155;28;20508;-62
2023/08/11 07:12:41;;;;;;;956.08;814.92;;;;;;;;;;5037067;28;20553;-63
2023/08/11 07:15:08;;;;;;;964.00;835.33;;;;;;;;;;5030031;28;20445;-62
2023/08/11 07:17:39;;;;;;;967.72;838.97;;;;;;;;;;5027686;28;20438;-62
2023/08/11 07:20:06;;;;;;;963.13;828.28;;;;;;;;;;5022563;28;20508;-62
2023/08/11 07:22:33;;;;;;;961.10;818.33;;;;;;;;;;5026650;28;20842;-61
2023/08/11 07:25:00;;;;;;;960.40;818.47;;;;;;;;;;5028965;28;21117;-62
2023/08/11 07:27:28;;;;;;;954.70;812.07;;;;;;;;;;5027736;28;20433;-61
2023/08/11 07:29:55;;;;;;;966.63;829.00;;;;;;;;;;5028794;28;20522;-61
2023/08/11 07:32:22;;;;;;;968.03;829.58;;;;;;;;;;5024681;28;20461;-61
2023/08/11 07:34:49;;;;;;;966.45;827.42;;;;;;;;;;5022605;28;20564;-62
2023/08/11 07:37:16;;;;;;;970.03;835.22;;;;;;;;;;5023769;28;20441;-62
2023/08/11 07:39:44;;;;;;;966.95;831.35;;;;;;;;;;5022813;28;20970;-62
2023/08/11 07:42:11;;;;;;;967.78;835.92;;;;;;;;;;5026148;28;20440;-62
2023/08/11 07:44:38;;;;;;;977.45;857.22;;;;;;;;;;5022752;28;20437;-61
2023/08/11 07:47:05;;;;;;;985.42;868.22;;;;;;;;;;5025918;28;20515;-61
2023/08/11 07:49:33;;;;;;;972.20;844.28;;;;;;;;;;5023878;28;20436;-62
2023/08/11 07:52:01;;;;;;;975.13;853.10;;;;;;;;;;5023923;28;20433;-62
2023/08/11 07:54:28;;;;;;;968.23;841.07;;;;;;;;;;5028443;28;20445;-62
2023/08/11 07:56:55;;;;;;;954.20;824.72;;;;;;;;;;5023041;28;20466;-61
2023/08/11 07:59:22;;;;;;;969.10;847.97;;;;;;;;;;5017937;28;20443;-62
2023/08/11 08:01:52;;;;;;;946.88;809.17;;;;;;;;;;5021300;28;20510;-62
2023/08/11 08:04:19;;;;;;;956.55;828.75;;;;;;;;;;5028188;28;20432;-62
2023/08/11 08:06:46;;;;;;;964.97;840.97;;;;;;;;;;5024489;28;20441;-62
2023/08/11 08:09:14;;;;;;;962.13;838.60;;;;;;;;;;5041469;28;20521;-61
2023/08/11 08:11:47;;;;;;;965.97;847.65;;;;;;;;;;5043773;28;20468;-62
2023/08/11 08:14:14;;;;;;;980.22;868.28;;;;;;;;;;5028841;28;20495;-62
2023/08/11 08:16:42;;;;;;;983.83;874.75;;;;;;;;;;5028826;28;20436;-61
2023/08/11 08:19:10;;;;;;;985.70;876.40;;;;;;;;;;5028940;28;21753;-61
2023/08/11 08:21:38;;;;;;;982.45;873.30;;;;;;;;;;5028629;28;23025;-62
2023/08/11 08:24:07;;;;;;;987.97;878.42;;;;;;;;;;5028688;28;20436;-59
2023/08/11 08:26:35;;;;;;;970.10;845.95;;;;;;;;;;5025364;28;20437;-60
2023/08/11 08:29:03;;;;;;;992.28;882.13;;;;;;;;;;5027079;28;20941;-60
2023/08/11 08:31:31;;;;;;;991.00;879.30;;;;;;;;;;5024468;28;20541;-60
2023/08/11 08:33:58;;;;;;;973.88;847.00;;;;;;;;;;5025750;28;20426;-61
2023/08/11 08:36:25;;;;;;;971.10;837.37;;;;;;;;;;5026446;28;20538;-69
2023/08/11 08:38:53;;;;;;;979.35;854.58;;;;;;;;;;5027187;28;20523;-69
2023/08/11 08:41:27;;;;;;;981.70;856.45;;;;;;;;;;5025573;28;20469;-69
2023/08/11 08:43:55;;;;;;;972.67;841.67;;;;;;;;;;5026327;28;20892;-69
2023/08/11 08:46:27;;;;;;;978.17;852.10;;;;;;;;;;5028607;28;20437;-69
2023/08/11 08:49:13;;;;;;;984.80;864.67;;;;;;;;;;5027205;28;20478;-69
2023/08/11 08:51:40;;;;;;;983.25;866.60;;;;;;;;;;5024478;28;20434;-69
2023/08/11 08:54:09;;;;;;;984.72;866.38;;;;;;;;;;5029825;28;20429;-69
2023/08/11 08:56:39;;;;;;;981.80;865.03;;;;;;;;;;5025839;28;22048;-69
2023/08/11 08:59:07;;;;;;;993.20;883.30;;;;;;;;;;5024033;28;20452;-69
2023/08/11 09:01:35;;;;;;;992.27;882.20;;;;;;;;;;5023894;28;20432;-68
2023/08/11 09:04:03;;;;;;;1007.90;897.38;;;;;;;;;;5025708;28;20811;-69
2023/08/11 09:06:31;;;;;;;1008.33;897.83;;;;;;;;;;5029138;28;20445;-69
2023/08/11 09:08:59;;;;;;;1019.13;908.13;;;;;;;;;;5026597;28;20542;-69
2023/08/11 09:11:27;;;;;;;1033.82;922.25;;;;;;;;;;5026658;28;20889;-69
2023/08/11 09:13:54;;;;;;;1009.03;898.27;;;;;;;;;;5026619;28;20553;-68
2023/08/11 09:16:23;;;;;;;996.05;885.90;;;;;;;;;;5031252;28;20445;-69
2023/08/11 09:18:50;;;;;;;1007.03;896.43;;;;;;;;;;5032905;28;20440;-69
2023/08/11 09:21:20;;;;;;;992.47;882.78;;;;;;;;;;5025230;28;21320;-69
2023/08/11 09:23:47;;;;;;;991.72;882.13;;;;;;;;;;5031940;28;20437;-69
2023/08/11 09:26:14;;;;;;;984.53;871.20;;;;;;;;;;5027928;28;20433;-68
2023/08/11 09:28:41;;;;;;;983.08;870.00;;;;;;;;;;5028864;28;20471;-68
2023/08/11 09:31:08;;;;;;;982.13;872.20;;;;;;;;;;5027384;28;20775;-69
2023/08/11 09:33:36;;;;;;;989.47;879.63;;;;;;;;;;5030485;28;20437;-68
2023/08/11 09:36:03;;;;;;;1006.65;895.70;;;;;;;;;;5034881;28;20437;-69
2023/08/11 09:38:31;;;;;;;1003.63;893.05;;;;;;;;;;5029997;28;20524;-68
2023/08/11 09:41:04;;;;;;;1013.95;902.83;;;;;;;;;;5028586;28;20475;-68
2023/08/11 09:43:32;;;;;;;1017.53;906.25;;;;;;;;;;5030382;28;21055;-69
2023/08/11 09:45:59;;;;;;;1031.40;919.20;;;;;;;;;;5029938;28;20441;-68
2023/08/11 09:48:28;;;;;;;1051.23;938.30;;;;;;;;;;5027186;28;20431;-68
2023/08/11 09:50:57;;;;;;;1037.87;925.60;;;;;;;;;;5029501;28;20464;-68
2023/08/11 09:53:25;;;;;;;1033.70;921.85;;;;;;;;;;5026420;28;20540;-69
2023/08/11 09:55:55;;;;;;;1003.08;892.83;;;;;;;;;;5028068;28;20524;-69
2023/08/11 09:58:24;;;;;;;1008.83;898.13;;;;;;;;;;5031129;28;20595;-68
2023/08/11 10:00:52;;;;;;;1000.30;889.83;;;;;;;;;;5029329;28;20433;-68
2023/08/11 10:03:30;;;;;;;1002.58;892.88;;;;;;;;;;5029654;28;20433;-69
2023/08/11 10:05:59;;;;;;;1019.13;908.47;;;;;;;;;;5027141;28;20425;-68
2023/08/11 10:08:27;;;;;;;1005.42;895.40;;;;;;;;;;5026426;28;20435;-68
2023/08/11 10:10:54;;;;;;;1002.17;892.17;;;;;;;;;;5027417;28;20536;-68
2023/08/11 10:13:28;;;;;;;999.47;889.78;;;;;;;;;;5029429;28;20541;-69
2023/08/11 10:15:56;;;;;;;1015.70;904.63;;;;;;;;;;5028374;28;20438;-68
2023/08/11 10:18:23;;;;;;;1017.90;906.95;;;;;;;;;;5025388;28;20446;-68
2023/08/11 10:20:56;;;;;;;1013.83;902.77;;;;;;;;;;5024229;28;21585;-68
2023/08/11 10:23:24;;;;;;;998.08;888.35;;;;;;;;;;5021592;28;20440;-68
2023/08/11 10:25:51;;;;;;;991.70;882.13;;;;;;;;;;5030342;28;20467;-68
2023/08/11 10:28:19;;;;;;;1025.38;914.08;;;;;;;;;;5025889;28;20442;-68
2023/08/11 10:30:55;;;;;;;1014.33;903.63;;;;;;;;;;5024293;28;20429;-69
2023/08/11 10:33:23;;;;;;;1025.63;914.17;;;;;;;;;;5028978;28;20504;-69
2023/08/11 10:35:52;;;;;;;1029.78;917.97;;;;;;;;;;5032651;28;20433;-68
2023/08/11 10:38:26;;;;;;;1043.00;930.60;;;;;;;;;;5028364;28;21026;-68
2023/08/11 10:41:04;;;;;;;1027.40;916.05;;;;;;;;;;5029523;28;20520;-68
2023/08/11 10:43:42;;;;;;;995.25;885.90;;;;;;;;;;5029405;28;20443;-68
2023/08/11 10:46:24;;;;;;;1013.28;903.30;;;;;;;;;;5025835;28;20452;-68
2023/08/11 10:48:52;;;;;;;1022.97;912.22;;;;;;;;;;5027953;28;20433;-68
2023/08/11 10:51:32;;;;;;;1040.85;929.88;;;;;;;;;;5028567;28;20435;-68
2023/08/11 10:54:11;;;;;;;1027.50;916.57;;;;;;;;;;5028606;28;20436;-66
2023/08/11 10:56:39;;;;;;;1045.93;933.97;;;;;;;;;;5026971;28;20524;-66
2023/08/11 10:59:06;;;;;;;1019.75;909.33;;;;;;;;;;5027821;28;20506;-66
2023/08/11 11:01:34;;;;;;;1035.75;924.20;;;;;;;;;;5023844;28;20429;-66
2023/08/11 11:04:02;;;;;;;1039.60;928.53;;;;;;;;;;5027490;28;20527;-67
2023/08/11 11:06:29;;;;;;;1031.63;920.65;;;;;;;;;;5025772;28;23165;-68
2023/08/11 11:08:56;;;;;;;1036.80;925.37;;;;;;;;;;5024209;28;20575;-68
2023/08/11 11:11:24;;;;;;;1050.07;938.05;;;;;;;;;;5026497;28;20460;-68
2023/08/11 11:13:52;;;;;;;1054.50;942.20;;;;;;;;;;5026304;28;20433;-68
2023/08/11 11:16:20;;;;;;;1049.28;937.08;;;;;;;;;;5031996;28;20437;-68
2023/08/11 11:18:47;;;;;;;1078.57;964.85;;;;;;;;;;5022493;28;20495;-68
2023/08/11 11:21:18;;;;;;;1067.47;954.23;;;;;;;;;;5028339;28;20528;-68
2023/08/11 11:23:48;;;;;;;1070.57;957.35;;;;;;;;;;5024104;28;20534;-68
2023/08/11 11:26:21;;;;;;;1068.57;955.58;;;;;;;;;;5028551;28;20436;-68
2023/08/11 11:28:49;;;;;;;1054.63;942.33;;;;;;;;;;5022766;28;20433;-68
2023/08/11 11:31:16;;;;;;;1044.50;932.83;;;;;;;;;;5029206;28;20514;-67
2023/08/11 11:33:44;;;;;;;1031.63;920.33;;;;;;;;;;5029135;28;20448;-67
2023/08/11 11:36:12;;;;;;;1031.63;920.43;;;;;;;;;;5028247;28;20997;-68
2023/08/11 11:38:41;;;;;;;1035.75;924.25;;;;;;;;;;5030593;28;20437;-68
2023/08/11 11:41:17;;;;;;;1030.53;919.58;;;;;;;;;;5024891;28;20445;-69
2023/08/11 11:43:45;;;;;;;1017.67;907.50;;;;;;;;;;5026296;28;20540;-68
2023/08/11 11:46:15;;;;;;;1021.70;911.10;;;;;;;;;;5027832;28;20919;-68
2023/08/11 11:48:44;;;;;;;1015.37;904.97;;;;;;;;;;5024890;28;20975;-69
2023/08/11 11:51:12;;;;;;;1042.95;930.92;;;;;;;;;;5025412;28;20982;-68
2023/08/11 11:53:42;;;;;;;1003.45;893.65;;;;;;;;;;5027076;28;20429;-68
2023/08/11 11:56:14;;;;;;;1023.75;912.80;;;;;;;;;;5022582;28;20433;-70
2023/08/11 11:58:43;;;;;;;1089.15;974.42;;;;;;;;;;5025656;28;20550;-72
2023/08/11 12:01:14;;;;;;;1129.60;999.90;;;;;;;;;;5023338;28;20492;-72
2023/08/11 12:03:41;;;;;;;1082.37;968.30;;;;;;;;;;5027674;28;21573;-71
2023/08/11 12:06:10;;;;;;;1097.07;982.58;;;;;;;;;;5051181;28;20432;-72
2023/08/11 12:08:40;;;;;;;1049.75;938.00;;;;;;;;;;5033589;28;21019;-72
2023/08/11 12:11:10;;;;;;;1038.15;926.92;;;;;;;;;;5032012;28;20478;-72
2023/08/11 12:13:38;;;;;;;1014.28;904.53;;;;;;;;;;5032297;28;20510;-72
2023/08/11 12:16:09;;;;;;;1023.30;912.53;;;;;;;;;;5033152;28;20433;-73
2023/08/11 12:18:38;;;;;;;1042.30;930.58;;;;;;;;;;5032499;28;20491;-72
2023/08/11 12:21:09;;;;;;;1027.95;917.28;;;;;;;;;;5022681;28;20565;-72
2023/08/11 12:23:37;;;;;;;1017.53;907.55;;;;;;;;;;5025913;28;20982;-72
2023/08/11 12:26:04;;;;;;;1029.70;918.80;;;;;;;;;;5028359;28;20464;-72
2023/08/11 12:28:32;;;;;;;1084.00;969.55;;;;;;;;;;5024611;28;20437;-71
2023/08/11 12:30:59;;;;;;;1010.90;901.00;;;;;;;;;;5022963;28;20479;-72
2023/08/11 12:33:26;;;;;;;1006.22;896.70;;;;;;;;;;5024887;28;20427;-73
2023/08/11 12:35:54;;;;;;;1039.63;928.13;;;;;;;;;;5028039;28;20448;-71
2023/08/11 12:38:21;;;;;;;1022.95;912.50;;;;;;;;;;5023022;28;20538;-71
2023/08/11 12:40:49;;;;;;;1017.03;906.80;;;;;;;;;;5024173;28;20448;-71
2023/08/11 12:43:16;;;;;;;1024.95;914.05;;;;;;;;;;5024601;28;20467;-70
2023/08/11 12:45:47;;;;;;;1031.63;920.60;;;;;;;;;;5026092;28;20547;-72
2023/08/11 12:48:14;;;;;;;1021.30;910.90;;;;;;;;;;5033955;28;20433;-72
2023/08/11 12:50:42;;;;;;;1044.47;932.40;;;;;;;;;;5031794;28;20958;-71
2023/08/11 12:53:09;;;;;;;1028.60;917.65;;;;;;;;;;5028039;28;20439;-73
2023/08/11 12:55:37;;;;;;;1037.80;926.13;;;;;;;;;;5028093;28;20429;-71
2023/08/11 12:58:05;;;;;;;1039.60;927.83;;;;;;;;;;5026019;28;20489;-71
2023/08/11 13:00:34;;;;;;;1036.65;925.22;;;;;;;;;;5029056;28;23210;-71
2023/08/11 13:03:02;;;;;;;1048.63;936.38;;;;;;;;;;5029765;28;20448;-71
2023/08/11 13:05:29;;;;;;;1042.27;930.57;;;;;;;;;;5031326;28;20421;-71
2023/08/11 13:07:56;;;;;;;1007.70;898.00;;;;;;;;;;5029608;28;22325;-71
2023/08/11 13:10:24;;;;;;;1053.82;941.55;;;;;;;;;;5034559;28;20528;-71
2023/08/11 13:12:51;;;;;;;1052.15;939.97;;;;;;;;;;5031972;28;20564;-72
2023/08/11 13:15:18;;;;;;;1064.43;951.72;;;;;;;;;;5037130;28;20903;-74
2023/08/11 13:17:46;;;;;;;1053.32;941.08;;;;;;;;;;5032816;28;20868;-72
2023/08/11 13:20:13;;;;;;;1030.93;920.08;;;;;;;;;;5033133;28;20440;-70
2023/08/11 13:22:41;;;;;;;1032.88;921.97;;;;;;;;;;5032574;28;20443;-72
2023/08/11 13:25:09;;;;;;;1013.60;903.92;;;;;;;;;;5034404;28;20963;-70
2023/08/11 13:27:36;;;;;;;1041.82;930.45;;;;;;;;;;5029339;28;21084;-71
2023/08/11 13:30:14;;;;;;;1044.07;932.42;;;;;;;;;;5025501;28;21047;-71
2023/08/11 13:32:42;;;;;;;1057.32;944.92;;;;;;;;;;5028100;28;20433;-70
2023/08/11 13:35:09;;;;;;;1096.22;981.53;;;;;;;;;;5028470;28;20487;-71
2023/08/11 13:37:37;;;;;;;1069.47;956.38;;;;;;;;;;5028363;28;21423;-70
2023/08/11 13:40:06;;;;;;;1067.22;954.35;;;;;;;;;;5025476;28;21174;-72
2023/08/11 13:42:33;;;;;;;1074.97;961.60;;;;;;;;;;5027280;28;20435;-71
2023/08/11 13:45:00;;;;;;;1090.03;975.78;;;;;;;;;;5027790;28;20441;-70
2023/08/11 13:47:28;;;;;;;1069.20;956.15;;;;;;;;;;5031961;28;20505;-72
2023/08/11 13:49:55;;;;;;;1102.03;987.17;;;;;;;;;;5028011;28;20426;-72
2023/08/11 13:52:25;;;;;;;1099.97;985.08;;;;;;;;;;5029237;28;20429;-72
2023/08/11 13:54:57;;;;;;;1063.90;951.40;;;;;;;;;;5031599;28;20441;-71
2023/08/11 13:57:24;;;;;;;1051.82;939.95;;;;;;;;;;5025517;28;20433;-73